Time;durP1;ratioP1;P1;durP2;ratioP2;P2;SDS_P1;SDS_P2;PMS_P1;PMS_P2;Temp;Humidity;BMP_temperature;BMP_pressure;BME280_temperature;BME280_humidity;BME280_pressure;Samples;Min_cycle;Max_cycle;Signal;HPM_P1;HPM_P2
2024/03/20 00:00:47;;;;;;;10.30;4.40;;;;;;;-141.50;100.00;63355.56;5020753;28;20052;-80
2024/03/20 00:03:13;;;;;;;13.90;4.88;;;;;;;-141.50;100.00;63355.56;5030184;28;20060;-81
2024/03/20 00:05:39;;;;;;;11.82;4.47;;;;;;;-141.50;100.00;63355.56;5027276;28;20059;-81
2024/03/20 00:08:07;;;;;;;11.73;4.78;;;;;;;-141.50;100.00;63355.56;5029989;28;20045;-81
2024/03/20 00:10:33;;;;;;;10.70;4.40;;;;;;;-141.50;100.00;63355.56;5029138;28;20037;-81
2024/03/20 00:12:59;;;;;;;10.07;4.43;;;;;;;-141.50;100.00;63355.56;5033488;28;20068;-82
2024/03/20 00:15:25;;;;;;;9.77;4.63;;;;;;;-141.50;100.00;63355.56;5033110;28;20073;-83
2024/03/20 00:17:51;;;;;;;10.95;4.97;;;;;;;-141.50;100.00;63355.56;5032329;28;20139;-82
2024/03/20 00:20:17;;;;;;;11.95;4.80;;;;;;;-141.50;100.00;63355.56;5031939;28;20029;-82
2024/03/20 00:22:42;;;;;;;9.95;4.43;;;;;;;-141.50;100.00;63355.56;5032811;28;20084;-83
2024/03/20 00:25:09;;;;;;;12.95;4.90;;;;;;;-141.50;100.00;63355.56;5033810;28;20033;-80
2024/03/20 00:27:37;;;;;;;12.05;5.10;;;;;;;-141.50;100.00;63355.56;5028647;28;20064;-82
2024/03/20 00:30:04;;;;;;;11.10;5.20;;;;;;;-141.50;100.00;63355.56;5037480;28;20041;-79
2024/03/20 00:32:29;;;;;;;11.43;5.03;;;;;;;-141.50;100.00;63355.56;5043972;28;20066;-82
2024/03/20 00:34:55;;;;;;;11.43;4.60;;;;;;;-141.50;100.00;63355.56;5007311;28;20057;-83
2024/03/20 00:37:21;;;;;;;9.18;4.38;;;;;;;-141.50;100.00;63355.56;5033394;28;20048;-82
2024/03/20 00:39:47;;;;;;;8.73;4.30;;;;;;;-141.50;100.00;63355.56;5031334;28;20061;-83
2024/03/20 00:42:13;;;;;;;10.95;4.47;;;;;;;-141.50;100.00;63355.56;5017746;28;20538;-84
2024/03/20 00:44:39;;;;;;;9.25;4.60;;;;;;;-141.50;100.00;63355.56;5035925;28;20087;-83
2024/03/20 00:47:04;;;;;;;12.43;4.53;;;;;;;-141.50;100.00;63355.56;5004643;28;20134;-82
2024/03/20 00:49:32;;;;;;;11.70;5.32;;;;;;;-141.50;100.00;63355.56;5021931;28;20037;-82
2024/03/20 00:51:58;;;;;;;10.13;4.50;;;;;;;-141.50;100.00;63355.56;5030223;28;20539;-80
2024/03/20 00:54:24;;;;;;;12.10;4.65;;;;;;;-141.50;100.00;63355.56;5030389;28;20061;-81
2024/03/20 00:56:49;;;;;;;9.70;4.45;;;;;;;-141.50;100.00;63355.56;5016557;28;20080;-82
2024/03/20 00:59:16;;;;;;;9.38;4.07;;;;;;;-141.50;100.00;63355.56;5035326;28;20038;-82
2024/03/20 01:01:42;;;;;;;12.85;5.13;;;;;;;-141.50;100.00;63355.56;5029652;28;20213;-83
2024/03/20 01:04:08;;;;;;;13.13;4.85;;;;;;;-141.50;100.00;63355.56;5034134;28;20061;-83
2024/03/20 01:06:35;;;;;;;13.10;4.68;;;;;;;-141.50;100.00;63355.56;5034717;28;20681;-80
2024/03/20 01:09:05;;;;;;;10.75;4.35;;;;;;;-141.50;100.00;63355.56;5024988;28;20201;-80
2024/03/20 01:11:31;;;;;;;10.95;4.53;;;;;;;-141.50;100.00;63355.56;5018965;28;20037;-82
2024/03/20 01:13:57;;;;;;;10.55;4.80;;;;;;;-141.50;100.00;63355.56;5038894;28;20072;-81
2024/03/20 01:16:28;;;;;;;9.90;4.43;;;;;;;-141.50;100.00;63355.56;5030619;28;20068;-83
2024/03/20 01:18:56;;;;;;;11.00;4.78;;;;;;;-141.50;100.00;63355.56;5037054;28;20069;-81
2024/03/20 01:21:22;;;;;;;7.90;4.03;;;;;;;-141.50;100.00;63355.56;5029405;28;20049;-81
2024/03/20 01:23:48;;;;;;;11.00;4.22;;;;;;;-141.50;100.00;63355.56;5037460;28;20071;-80
2024/03/20 01:26:14;;;;;;;10.30;4.35;;;;;;;-141.50;100.00;63355.56;5033700;28;20071;-81
2024/03/20 01:28:41;;;;;;;8.75;4.30;;;;;;;-141.50;100.00;63355.56;5033325;28;20110;-80
2024/03/20 01:31:07;;;;;;;11.20;4.75;;;;;;;-141.50;100.00;63355.56;5001420;28;20111;-81
2024/03/20 01:33:33;;;;;;;10.23;4.05;;;;;;;-141.50;100.00;63355.56;5030521;28;20049;-81
2024/03/20 01:36:00;;;;;;;14.82;4.95;;;;;;;-141.50;100.00;63355.56;5028804;28;20530;-82
2024/03/20 01:38:26;;;;;;;10.15;4.70;;;;;;;-141.50;100.00;63355.56;5018872;28;20045;-82
2024/03/20 01:40:51;;;;;;;10.40;4.32;;;;;;;-141.50;100.00;63355.56;5034822;28;20053;-80
2024/03/20 01:43:19;;;;;;;13.05;4.72;;;;;;;-141.50;100.00;63355.56;5034833;28;20511;-80
2024/03/20 01:45:49;;;;;;;13.60;5.93;;;;;;;-141.50;100.00;63355.56;5033237;28;20052;-80
2024/03/20 01:48:16;;;;;;;14.02;5.85;;;;;;;-141.50;100.00;63355.56;5024833;28;20056;-80
2024/03/20 01:50:43;;;;;;;14.82;5.85;;;;;;;-141.50;100.00;63355.56;5028484;28;20048;-81
2024/03/20 01:53:11;;;;;;;16.00;5.00;;;;;;;-141.50;100.00;63355.56;5015175;28;20045;-82
2024/03/20 01:55:37;;;;;;;12.60;5.20;;;;;;;-141.50;100.00;63355.56;5029228;28;20068;-79
2024/03/20 01:58:03;;;;;;;10.55;4.50;;;;;;;-141.50;100.00;63355.56;5033927;28;20045;-79
2024/03/20 02:00:29;;;;;;;8.93;4.35;;;;;;;-141.50;100.00;63355.56;5048136;28;20029;-81
2024/03/20 02:02:57;;;;;;;16.80;4.72;;;;;;;-141.50;100.00;63355.56;5033898;28;20045;-82
2024/03/20 02:05:24;;;;;;;13.18;4.97;;;;;;;-141.50;100.00;63355.56;5016748;28;20041;-79
2024/03/20 02:07:55;;;;;;;11.07;4.97;;;;;;;-141.50;100.00;63355.56;5033431;28;20059;-81
2024/03/20 02:10:22;;;;;;;10.50;4.93;;;;;;;-141.50;100.00;63355.56;5033353;28;20037;-82
2024/03/20 02:13:00;;;;;;;9.50;4.95;;;;;;;-141.50;100.00;63355.56;5033473;28;20099;-84
2024/03/20 02:15:26;;;;;;;11.73;4.78;;;;;;;-141.50;100.00;63355.56;5017665;28;20068;-80
2024/03/20 02:17:52;;;;;;;10.93;4.75;;;;;;;-141.50;100.00;63355.56;5036571;28;20075;-81
2024/03/20 02:20:17;;;;;;;15.10;5.00;;;;;;;-141.50;100.00;63355.56;5030716;28;20064;-82
2024/03/20 02:22:44;;;;;;;15.20;5.32;;;;;;;-141.50;100.00;63355.56;5014971;28;20060;-82
2024/03/20 02:25:12;;;;;;;12.68;5.18;;;;;;;-141.50;100.00;63355.56;5022214;28;20052;-83
2024/03/20 02:27:39;;;;;;;11.70;5.20;;;;;;;-141.50;100.00;63355.56;4999399;28;20041;-82
2024/03/20 02:30:10;;;;;;;10.88;5.28;;;;;;;-141.50;100.00;63355.56;5032727;28;20128;-83
2024/03/20 02:32:37;;;;;;;14.27;5.22;;;;;;;-141.50;100.00;63355.56;5031812;28;20124;-83
2024/03/20 02:35:03;;;;;;;10.15;4.70;;;;;;;-141.50;100.00;63355.56;5018068;28;20044;-82
2024/03/20 02:37:29;;;;;;;11.02;4.90;;;;;;;-141.50;100.00;63355.56;5010523;28;20113;-81
2024/03/20 02:39:58;;;;;;;14.43;5.22;;;;;;;-141.50;100.00;63355.56;5022148;28;20856;-80
2024/03/20 02:42:23;;;;;;;10.50;4.45;;;;;;;-141.50;100.00;63355.56;5032182;28;20056;-81
2024/03/20 02:44:51;;;;;;;12.23;5.15;;;;;;;-141.50;100.00;63355.56;5032279;28;20091;-82
2024/03/20 02:47:17;;;;;;;12.43;4.93;;;;;;;-141.50;100.00;63355.56;5028837;28;20060;-82
2024/03/20 02:49:43;;;;;;;13.35;5.32;;;;;;;-141.50;100.00;63355.56;5013372;28;20057;-81
2024/03/20 02:52:09;;;;;;;13.55;5.72;;;;;;;-141.50;100.00;63355.56;5031443;28;20044;-81
2024/03/20 02:54:35;;;;;;;9.68;4.82;;;;;;;-141.50;100.00;63355.56;5008558;28;20067;-82
2024/03/20 02:57:01;;;;;;;10.82;5.28;;;;;;;-141.50;100.00;63355.56;5033821;28;20067;-80
2024/03/20 02:59:30;;;;;;;11.18;5.35;;;;;;;-141.50;100.00;63355.56;5030945;28;20621;-81
2024/03/20 03:01:56;;;;;;;10.48;4.80;;;;;;;-141.50;100.00;63355.56;5014511;28;20453;-81
2024/03/20 03:04:22;;;;;;;11.45;5.25;;;;;;;-141.50;100.00;63355.56;5049219;28;20062;-79
2024/03/20 03:06:48;;;;;;;11.20;5.10;;;;;;;-141.50;100.00;63355.56;5033329;28;20136;-80
2024/03/20 03:09:17;;;;;;;10.75;5.00;;;;;;;-141.50;100.00;63355.56;5034233;28;20051;-80
2024/03/20 03:11:44;;;;;;;11.80;5.20;;;;;;;-141.50;100.00;63355.56;5031826;28;20454;-81
2024/03/20 03:14:16;;;;;;;14.52;5.05;;;;;;;-141.50;100.00;63355.56;5033969;28;20100;-84
2024/03/20 03:16:42;;;;;;;11.70;5.10;;;;;;;-141.50;100.00;63355.56;5039355;28;20037;-82
2024/03/20 03:19:09;;;;;;;11.73;5.50;;;;;;;-141.50;100.00;63355.56;5032161;28;20490;-81
2024/03/20 03:21:36;;;;;;;16.50;5.53;;;;;;;-141.50;100.00;63355.56;5030874;28;20045;-81
2024/03/20 03:24:06;;;;;;;12.73;5.30;;;;;;;-141.50;100.00;63355.56;5031484;28;20040;-82
2024/03/20 03:26:32;;;;;;;11.35;5.35;;;;;;;-141.50;100.00;63355.56;5046570;28;20106;-81
2024/03/20 03:28:58;;;;;;;16.42;6.03;;;;;;;-141.50;100.00;63355.56;4995182;28;20065;-82
2024/03/20 03:31:24;;;;;;;17.10;6.13;;;;;;;-141.50;100.00;63355.56;5017947;28;20052;-80
2024/03/20 03:33:50;;;;;;;12.07;5.10;;;;;;;-141.50;100.00;63355.56;5029497;28;20045;-80
2024/03/20 03:36:16;;;;;;;14.35;6.07;;;;;;;-141.50;100.00;63355.56;5012034;28;20676;-80
2024/03/20 03:38:41;;;;;;;12.90;5.40;;;;;;;-141.50;100.00;63355.56;5026924;28;20069;-80
2024/03/20 03:41:07;;;;;;;13.77;5.47;;;;;;;-141.50;100.00;63355.56;5018177;28;20452;-80
2024/03/20 03:43:33;;;;;;;14.75;5.65;;;;;;;-141.50;100.00;63355.56;5010421;28;20057;-82
2024/03/20 03:45:59;;;;;;;13.27;5.45;;;;;;;-141.50;100.00;63355.56;5015763;28;20063;-81
2024/03/20 03:48:26;;;;;;;13.30;5.82;;;;;;;-141.50;100.00;63355.56;5036017;28;20059;-83
2024/03/20 03:50:52;;;;;;;12.68;5.82;;;;;;;-141.50;100.00;63355.56;5046988;28;20043;-82
2024/03/20 03:53:18;;;;;;;13.18;5.32;;;;;;;-141.50;100.00;63355.56;5034507;28;20118;-82
2024/03/20 03:55:45;;;;;;;13.52;5.45;;;;;;;-141.50;100.00;63355.56;5012667;28;20045;-82
2024/03/20 03:58:11;;;;;;;14.15;5.50;;;;;;;-141.50;100.00;63355.56;5034826;28;20047;-81
2024/03/20 04:00:37;;;;;;;13.43;6.03;;;;;;;-141.50;100.00;63355.56;5033047;28;20041;-83
2024/03/20 04:03:03;;;;;;;19.13;6.07;;;;;;;-141.50;100.00;63355.56;5005797;28;20061;-82
2024/03/20 04:05:33;;;;;;;17.92;6.15;;;;;;;-141.50;100.00;63355.56;5013303;28;20037;-79
2024/03/20 04:07:59;;;;;;;12.65;5.85;;;;;;;-141.50;100.00;63355.56;5032975;28;21414;-82
2024/03/20 04:10:25;;;;;;;11.55;5.90;;;;;;;-141.50;100.00;63355.56;5016270;28;20037;-83
2024/03/20 04:12:51;;;;;;;14.25;5.88;;;;;;;-141.50;100.00;63355.56;5032969;28;20068;-83
2024/03/20 04:15:17;;;;;;;16.23;5.80;;;;;;;-141.50;100.00;63355.56;5043034;28;20044;-81
2024/03/20 04:17:44;;;;;;;13.05;6.22;;;;;;;-141.50;100.00;63355.56;5011171;28;20136;-81
2024/03/20 04:20:11;;;;;;;15.30;6.00;;;;;;;-141.50;100.00;63355.56;4998638;28;20523;-80
2024/03/20 04:22:44;;;;;;;11.90;5.75;;;;;;;-141.50;100.00;63355.56;5038703;28;20787;-82
2024/03/20 04:25:10;;;;;;;12.77;5.70;;;;;;;-141.50;100.00;63355.56;5022462;28;20065;-82
2024/03/20 04:27:36;;;;;;;14.90;5.93;;;;;;;-141.50;100.00;63355.56;5030778;28;20076;-80
2024/03/20 04:30:06;;;;;;;11.45;5.72;;;;;;;-141.50;100.00;63355.56;5013296;28;20044;-82
2024/03/20 04:32:35;;;;;;;15.98;6.13;;;;;;;-141.50;100.00;63355.56;5031840;28;20084;-83
2024/03/20 04:35:02;;;;;;;15.10;5.38;;;;;;;-141.50;100.00;63355.56;5030352;28;20511;-82
2024/03/20 04:37:27;;;;;;;13.80;6.18;;;;;;;-141.50;100.00;63355.56;5033473;28;20059;-80
2024/03/20 04:39:53;;;;;;;13.57;6.13;;;;;;;-141.50;100.00;63355.56;5021077;28;20061;-81
2024/03/20 04:42:19;;;;;;;13.80;5.63;;;;;;;-141.50;100.00;63355.56;5020012;28;20079;-84
2024/03/20 04:44:46;;;;;;;16.90;6.43;;;;;;;-141.50;100.00;63355.56;5038354;28;20088;-82
2024/03/20 04:47:11;;;;;;;13.05;5.93;;;;;;;-141.50;100.00;63355.56;5034857;28;20082;-82
2024/03/20 04:49:37;;;;;;;14.95;6.38;;;;;;;-141.50;100.00;63355.56;5036309;28;20056;-82
2024/03/20 04:52:04;;;;;;;15.65;6.40;;;;;;;-141.50;100.00;63355.56;5018450;28;20045;-82
2024/03/20 04:54:32;;;;;;;12.00;5.68;;;;;;;-141.50;100.00;63355.56;4998658;28;20049;-78
2024/03/20 04:57:00;;;;;;;13.88;5.40;;;;;;;-141.50;100.00;63355.56;5034272;28;20049;-83
2024/03/20 04:59:26;;;;;;;14.13;5.50;;;;;;;-141.50;100.00;63355.56;5035669;28;20044;-82
2024/03/20 05:01:52;;;;;;;18.17;6.10;;;;;;;-141.50;100.00;63355.56;5017606;28;20052;-80
2024/03/20 05:04:18;;;;;;;17.05;6.05;;;;;;;-141.50;100.00;63355.56;5036653;28;20199;-81
2024/03/20 05:06:44;;;;;;;14.63;5.57;;;;;;;-141.50;100.00;63355.56;5032319;28;20486;-81
2024/03/20 05:09:10;;;;;;;14.35;6.20;;;;;;;-141.50;100.00;63355.56;5019680;28;20049;-80
2024/03/20 05:11:36;;;;;;;14.90;6.28;;;;;;;-141.50;100.00;63355.56;5010211;28;20057;-79
2024/03/20 05:14:02;;;;;;;16.30;6.20;;;;;;;-141.50;100.00;63355.56;5044224;28;20049;-80
2024/03/20 05:16:28;;;;;;;14.50;5.80;;;;;;;-141.50;100.00;63355.56;5040879;28;20053;-81
2024/03/20 05:18:53;;;;;;;15.15;6.43;;;;;;;-141.50;100.00;63355.56;5033780;28;20045;-81
2024/03/20 05:21:19;;;;;;;17.00;6.40;;;;;;;-141.50;100.00;63355.56;5019376;28;20737;-81
2024/03/20 05:23:45;;;;;;;15.48;5.82;;;;;;;-141.50;100.00;63355.56;5034251;28;20057;-81
2024/03/20 05:26:11;;;;;;;12.43;6.05;;;;;;;-141.50;100.00;63355.56;5022499;28;20127;-82
2024/03/20 05:28:37;;;;;;;13.52;6.13;;;;;;;-141.50;100.00;63355.56;5033944;28;20117;-82
2024/03/20 05:31:03;;;;;;;14.75;6.47;;;;;;;-141.50;100.00;63355.56;5039095;28;20037;-81
2024/03/20 05:33:28;;;;;;;16.10;6.07;;;;;;;-141.50;100.00;63355.56;5039078;28;20747;-81
2024/03/20 05:35:54;;;;;;;15.30;5.93;;;;;;;-141.50;100.00;63355.56;5010415;28;20054;-80
2024/03/20 05:38:20;;;;;;;19.17;6.75;;;;;;;-141.50;100.00;63355.56;5026387;28;20495;-79
2024/03/20 05:40:46;;;;;;;16.92;6.75;;;;;;;-141.50;100.00;63355.56;5039464;28;20045;-80
2024/03/20 05:43:12;;;;;;;16.23;6.35;;;;;;;-141.50;100.00;63355.56;5024203;28;20527;-80
2024/03/20 05:45:37;;;;;;;19.48;6.85;;;;;;;-141.50;100.00;63355.56;5022165;28;20574;-82
2024/03/20 05:48:03;;;;;;;16.75;6.47;;;;;;;-141.50;100.00;63355.56;5015412;28;20056;-82
2024/03/20 05:50:30;;;;;;;17.08;7.03;;;;;;;-141.50;100.00;63355.56;5035909;28;20049;-82
2024/03/20 05:52:56;;;;;;;18.92;6.75;;;;;;;-141.50;100.00;63355.56;5035381;28;20276;-81
2024/03/20 05:55:22;;;;;;;16.98;6.78;;;;;;;-141.50;100.00;63355.56;5029802;28;20063;-86
2024/03/20 05:57:57;;;;;;;27.35;10.85;;;;;;;-141.50;100.00;63355.56;5018201;28;20057;-86
2024/03/20 06:00:46;;;;;;;38.65;14.30;;;;;;;-141.50;100.00;63355.56;4985745;28;20508;-85
2024/03/20 06:03:12;;;;;;;41.65;15.82;;;;;;;-141.50;100.00;63355.56;5031138;28;20048;-84
2024/03/20 06:05:38;;;;;;;29.40;11.43;;;;;;;-141.50;100.00;63355.56;5036876;28;20072;-84
2024/03/20 06:08:05;;;;;;;20.90;8.57;;;;;;;-141.50;100.00;63355.56;5022347;28;20705;-79
2024/03/20 06:10:30;;;;;;;24.05;8.25;;;;;;;-141.50;100.00;63355.56;5053051;28;20148;-79
2024/03/20 06:12:56;;;;;;;19.35;8.35;;;;;;;-141.50;100.00;63355.56;5024947;28;20663;-82
2024/03/20 06:15:22;;;;;;;22.40;8.40;;;;;;;-141.50;100.00;63355.56;5028143;28;20052;-78
2024/03/20 06:17:47;;;;;;;23.00;8.13;;;;;;;-141.50;100.00;63355.56;5027674;28;20210;-80
2024/03/20 06:20:15;;;;;;;23.75;9.48;;;;;;;-141.50;100.00;63355.56;5030208;28;20053;-79
2024/03/20 06:22:41;;;;;;;25.50;11.10;;;;;;;-141.50;100.00;63355.56;5016933;28;20056;-78
2024/03/20 06:25:07;;;;;;;37.33;13.30;;;;;;;-141.50;100.00;63355.56;5031389;28;20071;-78
2024/03/20 06:27:34;;;;;;;41.45;15.95;;;;;;;-141.50;100.00;63355.56;5024438;28;20060;-80
2024/03/20 06:30:03;;;;;;;37.35;16.13;;;;;;;-141.50;100.00;63355.56;5035677;28;20095;-80
2024/03/20 06:32:32;;;;;;;33.08;14.18;;;;;;;-141.50;100.00;63355.56;5024837;28;20416;-80
2024/03/20 06:34:58;;;;;;;31.20;13.48;;;;;;;-141.50;100.00;63355.56;5023201;28;20127;-79
2024/03/20 06:37:24;;;;;;;32.28;12.70;;;;;;;-141.50;100.00;63355.56;5033995;28;20183;-79
2024/03/20 06:39:49;;;;;;;24.50;10.85;;;;;;;-141.50;100.00;63355.56;5032349;28;20060;-79
2024/03/20 06:42:21;;;;;;;25.35;10.10;;;;;;;-141.50;100.00;63355.56;5010348;28;20053;-80
2024/03/20 06:44:50;;;;;;;29.00;11.40;;;;;;;-141.50;100.00;63355.56;5030535;28;20060;-79
2024/03/20 06:47:18;;;;;;;24.90;11.48;;;;;;;-141.50;100.00;63355.56;5029427;28;20049;-79
2024/03/20 06:49:44;;;;;;;21.55;9.57;;;;;;;-141.50;100.00;63355.56;5016100;28;20061;-79
2024/03/20 06:52:19;;;;;;;21.95;8.88;;;;;;;-141.50;100.00;63355.56;5008515;28;20088;-79
2024/03/20 06:54:46;;;;;;;24.48;9.05;;;;;;;-141.50;100.00;63355.56;5021331;28;20148;-77
2024/03/20 06:57:13;;;;;;;20.90;7.30;;;;;;;-141.50;100.00;63355.56;5022548;28;20109;-78
2024/03/20 06:59:48;;;;;;;20.48;7.70;;;;;;;-141.50;100.00;63355.56;5009476;28;20054;-79
2024/03/20 07:02:14;;;;;;;16.52;7.38;;;;;;;-141.50;100.00;63355.56;5004648;28;20049;-78
2024/03/20 07:04:41;;;;;;;17.65;7.50;;;;;;;-141.50;100.00;63355.56;5024788;28;20079;-79
2024/03/20 07:07:08;;;;;;;19.27;7.60;;;;;;;-141.50;100.00;63355.56;5026082;28;20185;-79
2024/03/20 07:09:34;;;;;;;19.75;7.53;;;;;;;-141.50;100.00;63355.56;5034369;28;20547;-80
2024/03/20 07:12:01;;;;;;;16.77;7.30;;;;;;;-141.50;100.00;63355.56;5028404;28;20064;-79
2024/03/20 07:14:29;;;;;;;20.10;7.45;;;;;;;-141.50;100.00;63355.56;5030691;28;20068;-78
2024/03/20 07:16:56;;;;;;;21.42;7.45;;;;;;;-141.50;100.00;63355.56;5009780;28;20764;-78
2024/03/20 07:19:23;;;;;;;18.13;7.20;;;;;;;-141.50;100.00;63355.56;5028009;28;20102;-78
2024/03/20 07:21:48;;;;;;;15.50;6.97;;;;;;;-141.50;100.00;63355.56;5012805;28;20057;-80
2024/03/20 07:24:15;;;;;;;15.48;7.50;;;;;;;-141.50;100.00;63355.56;5027552;28;20049;-80
2024/03/20 07:26:41;;;;;;;26.20;7.88;;;;;;;-141.50;100.00;63355.56;5015724;28;20064;-79
2024/03/20 07:29:10;;;;;;;20.95;7.72;;;;;;;-141.50;100.00;63355.56;5007756;28;20049;-77
2024/03/20 07:31:39;;;;;;;22.45;8.00;;;;;;;-141.50;100.00;63355.56;5022667;28;20063;-80
2024/03/20 07:34:06;;;;;;;20.73;7.88;;;;;;;-141.50;100.00;63355.56;4989592;28;20116;-79
2024/03/20 07:36:35;;;;;;;19.08;7.32;;;;;;;-141.50;100.00;63355.56;5009132;28;20116;-79
2024/03/20 07:39:03;;;;;;;18.85;7.38;;;;;;;-141.50;100.00;63355.56;5030963;28;20541;-77
2024/03/20 07:41:32;;;;;;;17.90;7.63;;;;;;;-141.50;100.00;63355.56;5029320;28;20053;-79
2024/03/20 07:43:58;;;;;;;22.30;7.93;;;;;;;-141.50;100.00;63355.56;5009575;28;20052;-79
2024/03/20 07:46:24;;;;;;;17.45;7.40;;;;;;;-141.50;100.00;63355.56;5026609;28;20069;-79
2024/03/20 07:48:50;;;;;;;20.58;7.78;;;;;;;-141.50;100.00;63355.56;5024807;28;20054;-79
2024/03/20 07:51:18;;;;;;;16.00;7.22;;;;;;;-141.50;100.00;63355.56;5024345;28;20051;-78
2024/03/20 07:53:44;;;;;;;17.38;6.90;;;;;;;-141.50;100.00;63355.56;5018446;28;20490;-79
2024/03/20 07:56:11;;;;;;;20.13;7.80;;;;;;;-141.50;100.00;63355.56;5025294;28;20049;-79
2024/03/20 07:58:37;;;;;;;17.08;6.95;;;;;;;-141.50;100.00;63355.56;4996583;28;20114;-80
2024/03/20 08:01:06;;;;;;;20.35;7.00;;;;;;;-141.50;100.00;63355.56;4993111;28;20071;-80
2024/03/20 08:03:32;;;;;;;14.68;7.28;;;;;;;-141.50;100.00;63355.56;5015267;28;20128;-80
2024/03/20 08:05:58;;;;;;;14.05;6.80;;;;;;;-141.50;100.00;63355.56;4997781;28;20144;-79
2024/03/20 08:08:24;;;;;;;16.08;6.38;;;;;;;-141.50;100.00;63355.56;5001873;28;20662;-79
2024/03/20 08:10:50;;;;;;;14.38;6.47;;;;;;;-141.50;100.00;63355.56;5013386;28;20057;-79
2024/03/20 08:13:16;;;;;;;16.42;7.05;;;;;;;-141.50;100.00;63355.56;5022696;28;20045;-81
2024/03/20 08:15:42;;;;;;;17.00;7.47;;;;;;;-141.50;100.00;63355.56;5006745;28;20059;-80
2024/03/20 08:18:08;;;;;;;16.05;7.00;;;;;;;-141.50;100.00;63355.56;5008258;28;20056;-77
2024/03/20 08:20:34;;;;;;;14.80;6.93;;;;;;;-141.50;100.00;63355.56;5013031;28;20071;-80
2024/03/20 08:23:01;;;;;;;15.63;6.90;;;;;;;-141.50;100.00;63355.56;5023943;28;20041;-81
2024/03/20 08:25:28;;;;;;;14.82;7.35;;;;;;;-141.50;100.00;63355.56;5021182;28;20052;-77
2024/03/20 08:27:55;;;;;;;15.73;6.78;;;;;;;-141.50;100.00;63355.56;5020490;28;20060;-76
2024/03/20 08:30:24;;;;;;;14.70;6.40;;;;;;;-141.50;100.00;63355.56;4933169;28;20131;-77
2024/03/20 08:32:51;;;;;;;15.73;7.20;;;;;;;-141.50;100.00;63355.56;4968173;28;20056;-75
2024/03/20 08:35:18;;;;;;;15.50;7.32;;;;;;;-141.50;100.00;63355.56;4961368;28;20053;-77
2024/03/20 08:37:44;;;;;;;13.75;6.72;;;;;;;-141.50;100.00;63355.56;4956520;28;21715;-77
2024/03/20 08:40:12;;;;;;;13.90;6.80;;;;;;;-141.50;100.00;63355.56;4971584;28;20199;-76
2024/03/20 08:42:37;;;;;;;15.43;6.53;;;;;;;-141.50;100.00;63355.56;4976825;28;20102;-77
2024/03/20 08:45:04;;;;;;;16.38;7.00;;;;;;;-141.50;100.00;63355.56;5025762;28;20045;-81
2024/03/20 08:47:30;;;;;;;11.13;6.10;;;;;;;-141.50;100.00;63355.56;5023944;28;20044;-78
2024/03/20 08:49:56;;;;;;;14.23;5.88;;;;;;;-141.50;100.00;63355.56;4999822;28;20057;-79
2024/03/20 08:52:22;;;;;;;12.80;5.32;;;;;;;-141.50;100.00;63355.56;5023685;28;20057;-80
2024/03/20 08:54:49;;;;;;;12.57;6.60;;;;;;;-141.50;100.00;63355.56;5023727;28;20049;-81
2024/03/20 08:57:19;;;;;;;17.10;6.13;;;;;;;-141.50;100.00;63355.56;5009849;28;20072;-79
2024/03/20 08:59:45;;;;;;;14.45;5.65;;;;;;;-141.50;100.00;63355.56;5021728;28;20101;-80
2024/03/20 09:02:12;;;;;;;19.15;6.50;;;;;;;-141.50;100.00;63355.56;5013505;28;20044;-78
2024/03/20 09:04:42;;;;;;;12.77;5.75;;;;;;;-141.50;100.00;63355.56;5026404;28;20052;-79
2024/03/20 09:07:08;;;;;;;11.10;5.82;;;;;;;-141.50;100.00;63355.56;5026278;28;20094;-78
2024/03/20 09:09:34;;;;;;;13.80;6.32;;;;;;;-141.50;100.00;63355.56;5018506;28;20048;-78
2024/03/20 09:12:04;;;;;;;13.68;6.43;;;;;;;-141.50;100.00;63355.56;5021916;28;20045;-80
2024/03/20 09:14:34;;;;;;;14.68;6.43;;;;;;;-141.50;100.00;63355.56;5011820;28;20089;-80
2024/03/20 09:17:00;;;;;;;16.40;6.75;;;;;;;-141.50;100.00;63355.56;5026145;28;20045;-79
2024/03/20 09:19:25;;;;;;;14.80;6.13;;;;;;;-141.50;100.00;63355.56;5005481;28;20056;-79
2024/03/20 09:21:51;;;;;;;14.52;6.40;;;;;;;-141.50;100.00;63355.56;5020072;28;20045;-78
2024/03/20 09:24:22;;;;;;;15.70;6.30;;;;;;;-141.50;100.00;63355.56;4990332;28;20513;-80
2024/03/20 09:26:49;;;;;;;17.52;6.43;;;;;;;-141.50;100.00;63355.56;5023919;28;20052;-79
2024/03/20 09:29:15;;;;;;;15.60;6.60;;;;;;;-141.50;100.00;63355.56;5025343;28;20049;-80
2024/03/20 09:31:41;;;;;;;11.90;5.93;;;;;;;-141.50;100.00;63355.56;5024570;28;20103;-80
2024/03/20 09:34:07;;;;;;;14.50;6.38;;;;;;;-141.50;100.00;63355.56;5027608;28;20045;-80
2024/03/20 09:36:33;;;;;;;15.00;6.57;;;;;;;-141.50;100.00;63355.56;5026495;28;20049;-79
2024/03/20 09:38:59;;;;;;;13.57;6.70;;;;;;;-141.50;100.00;63355.56;5030672;28;20068;-79
2024/03/20 09:41:25;;;;;;;15.57;7.15;;;;;;;-141.50;100.00;63355.56;5026618;28;20041;-79
2024/03/20 09:43:52;;;;;;;16.52;6.88;;;;;;;-141.50;100.00;63355.56;5041580;28;20447;-80
2024/03/20 09:46:19;;;;;;;14.48;6.95;;;;;;;-141.50;100.00;63355.56;5010618;28;20063;-80
2024/03/20 09:48:49;;;;;;;12.90;6.55;;;;;;;-141.50;100.00;63355.56;5025247;28;20044;-80
2024/03/20 09:51:19;;;;;;;13.45;6.30;;;;;;;-141.50;100.00;63355.56;5006532;28;20060;-79
2024/03/20 09:53:47;;;;;;;15.80;7.05;;;;;;;-141.50;100.00;63355.56;5027079;28;20071;-78
2024/03/20 09:56:16;;;;;;;16.17;6.93;;;;;;;-141.50;100.00;63355.56;5032898;28;20086;-78
2024/03/20 09:58:45;;;;;;;21.00;7.03;;;;;;;-141.50;100.00;63355.56;5046951;28;20085;-77
2024/03/20 10:01:17;;;;;;;12.63;6.70;;;;;;;-141.50;100.00;63355.56;5029472;28;20779;-80
2024/03/20 10:03:43;;;;;;;15.10;6.85;;;;;;;-141.50;100.00;63355.56;5029385;28;20062;-79
2024/03/20 10:06:11;;;;;;;15.30;6.82;;;;;;;-141.50;100.00;63355.56;5024325;28;20040;-78
2024/03/20 10:08:38;;;;;;;13.82;6.55;;;;;;;-141.50;100.00;63355.56;5025983;28;20052;-78
2024/03/20 10:11:08;;;;;;;14.23;6.90;;;;;;;-141.50;100.00;63355.56;5025342;28;20045;-80
2024/03/20 10:13:40;;;;;;;16.63;6.90;;;;;;;-141.50;100.00;63355.56;5023554;28;20093;-79
2024/03/20 10:16:13;;;;;;;16.23;6.70;;;;;;;-141.50;100.00;63355.56;5017337;28;20071;-80
2024/03/20 10:18:42;;;;;;;17.73;7.40;;;;;;;-141.50;100.00;63355.56;5027445;28;20078;-80
2024/03/20 10:21:09;;;;;;;16.25;7.53;;;;;;;-141.50;100.00;63355.56;5025685;28;20068;-79
2024/03/20 10:23:41;;;;;;;17.63;7.00;;;;;;;-141.50;100.00;63355.56;5024703;28;20049;-79
2024/03/20 10:26:12;;;;;;;14.93;6.82;;;;;;;-141.50;100.00;63355.56;5005767;28;20068;-79
2024/03/20 10:28:39;;;;;;;14.93;6.68;;;;;;;-141.50;100.00;63355.56;5027386;28;20139;-80
2024/03/20 10:31:07;;;;;;;12.48;7.22;;;;;;;-141.50;100.00;63355.56;5026154;28;20057;-79
2024/03/20 10:33:34;;;;;;;15.82;6.75;;;;;;;-141.50;100.00;63355.56;5026537;28;20049;-78
2024/03/20 10:36:01;;;;;;;18.63;6.90;;;;;;;-141.50;100.00;63355.56;5025658;28;20056;-78
2024/03/20 10:38:28;;;;;;;16.35;7.45;;;;;;;-141.50;100.00;63355.56;5017732;28;20167;-79
2024/03/20 10:40:54;;;;;;;14.05;7.05;;;;;;;-141.50;100.00;63355.56;5025092;28;20064;-80
2024/03/20 10:43:21;;;;;;;13.35;6.45;;;;;;;-141.50;100.00;63355.56;5006765;28;20057;-79
2024/03/20 10:45:48;;;;;;;13.00;6.47;;;;;;;-141.50;100.00;63355.56;5003201;28;20060;-80
2024/03/20 10:48:16;;;;;;;14.02;6.85;;;;;;;-141.50;100.00;63355.56;5024457;28;20057;-79
2024/03/20 10:50:46;;;;;;;14.00;7.10;;;;;;;-141.50;100.00;63355.56;5021448;28;20571;-80
2024/03/20 10:53:14;;;;;;;11.85;5.88;;;;;;;-141.50;100.00;63355.56;5026303;28;20055;-79
2024/03/20 10:55:42;;;;;;;13.35;6.18;;;;;;;-141.50;100.00;63355.56;5022610;28;20060;-81
2024/03/20 10:58:11;;;;;;;12.60;4.82;;;;;;;-141.50;100.00;63355.56;5009012;28;20583;-79
2024/03/20 11:00:41;;;;;;;8.18;3.72;;;;;;;-141.50;100.00;63355.56;5033922;28;20052;-79